KSLG/SLG METAR and TAF weather

Enter ICAO airport designator
Station Type Date Time Source
KSLG METAR 2018/12/12 10:56 UTC NOAA

KSLG 121056Z AUTO 21008KT 10SM CLR 07/02 A2999 RMK AO2 SLP157 T00720022


Station Type Date Time Source
KSLG Decoded METAR 2018/12/12 10:56 UTC NOAA

Siloam Springs, Smith Field Airport, AR, United States (KSLG) 36-12N 094-29W
Dec 12, 2018 - 05:56 AM EST / 2018.12.12 1056 UTC
Wind: from the SSW (210 degrees) at 9 MPH (8 KT):0
Visibility: 10 mile(s):0
Sky conditions: clear
Temperature: 45.0 F (7.2 C)
Dew Point: 36.0 F (2.2 C)
Relative Humidity: 70%
Pressure (altimeter): 29.99 in. Hg (1015 hPa)
ob: KSLG 121056Z AUTO 21008KT 10SM CLR 07/02 A2999 RMK AO2 SLP157 T00720022
cycle: 11

Station Type Date Time Source
KSLG TAF UTC NOAA

Error!


Example: see airport list